Accueil
METAR-TAF:

METAR-TAF

Aéroports :

Turin, Italie

Bric della Croce

latitude: 45-02N, longitude: 007-44E, altitude: 709 m

Observation

Le bulletin a été fait il y a 1 heure et 18 minutes, à 06:55 UTC
Vent 3 kt de nord
Température 11°C
Humidité 100%
Pression 1015 hPa
Visibilité: 2000 m
Nuages épars à une hauteur de 2300 ft
brume

METAR: LIMK 220655Z 01003KT 2000 BR SCT023 11/11 Q1015 RMK SCT VAL NEBBIA VIS MIN 2000

Heure: 10:13 (08:13 UTC)


TAF: absent

Observations et prévisions météorologiques de plus de 4000 aéroports (messages METAR et TAF).

Les stations disponibles sont représentées par des disques jaunes et rouges sur la carte.

Passer la souris dessus pour voir le nom de la station.

Cliquer dessus pour voir les observations et prévisions météorologiques.

Pour changer de carte: cliquez sur les boutons verts avec une croix noire pour zoomer, sur le bouton vert avec un tiret pour effectuer un zoom arrière, ou sur les flèches vertes pour les cartes adjacentes.


METAR-TAF: